Time,TemperatureF,DewpointF,PressureIn,WindDirection,WindDirectionDegrees,WindSpeedMPH,WindSpeedGustMPH,Humidity,HourlyPrecipIn,Conditions,Clouds,dailyrainin,SoftwareType,DateUTC
2013-05-30 00:04:00,76.1,70.6,29.93,WSW,257,0.0,12.0,83,0.00,,,0.00,Wunderground v.1.13,2013-05-30 05:04:00,
2013-05-30 00:09:00,76.1,70.6,29.92,WSW,257,0.0,12.0,83,0.00,,,0.00,Wunderground v.1.13,2013-05-30 05:09:00,
2013-05-30 00:14:00,76.1,70.6,29.92,WSW,257,0.0,12.0,83,0.00,,,0.00,Wunderground v.1.13,2013-05-30 05:14:00,
2013-05-30 00:19:00,76.1,70.6,29.92,WSW,257,0.0,12.0,83,0.00,,,0.00,Wunderground v.1.13,2013-05-30 05:19:00,
2013-05-30 00:25:00,76.1,70.6,29.92,WSW,257,0.0,12.0,83,0.00,,,0.00,Wunderground v.1.13,2013-05-30 05:25:00,
2013-05-30 00:30:00,76.0,70.5,29.92,WSW,257,0.0,12.0,83,0.00,,,0.00,Wunderground v.1.13,2013-05-30 05:30:00,
2013-05-30 00:36:00,76.0,70.5,29.92,WSW,257,0.0,12.0,83,0.00,,,0.00,Wunderground v.1.13,2013-05-30 05:36:00,
2013-05-30 00:41:00,76.0,70.5,29.92,WSW,257,0.0,12.0,83,0.00,,,0.00,Wunderground v.1.13,2013-05-30 05:41:00,
2013-05-30 00:46:00,76.0,70.5,29.92,WSW,257,0.0,12.0,83,0.00,,,0.00,Wunderground v.1.13,2013-05-30 05:46:00,
2013-05-30 00:51:00,76.0,70.8,29.92,SW,223,0.0,12.0,84,0.00,,,0.00,Wunderground v.1.13,2013-05-30 05:51:00,
2013-05-30 00:56:00,75.8,70.6,29.92,WSW,240,0.0,12.0,84,0.00,,,0.00,Wunderground v.1.13,2013-05-30 05:56:00,
2013-05-30 01:01:00,75.8,70.6,29.92,WSW,240,0.0,12.0,84,0.00,,,0.00,Wunderground v.1.13,2013-05-30 06:01:00,
2013-05-30 01:06:00,75.8,70.6,29.92,WSW,240,0.0,12.0,84,0.00,,,0.00,Wunderground v.1.13,2013-05-30 06:06:00,
2013-05-30 01:11:00,75.6,70.4,29.92,WSW,240,0.0,12.0,84,0.00,,,0.00,Wunderground v.1.13,2013-05-30 06:11:00,
2013-05-30 01:16:00,75.6,70.4,29.92,WSW,240,0.0,12.0,84,0.00,,,0.00,Wunderground v.1.13,2013-05-30 06:16:00,
2013-05-30 01:21:00,75.6,70.4,29.91,WSW,239,0.0,12.0,84,0.00,,,0.00,Wunderground v.1.13,2013-05-30 06:21:00,
2013-05-30 01:27:00,75.6,70.4,29.91,SW,227,0.0,12.0,84,0.00,,,0.00,Wunderground v.1.13,2013-05-30 06:27:00,
2013-05-30 01:32:00,75.6,70.4,29.91,SW,227,0.0,12.0,84,0.00,,,0.00,Wunderground v.1.13,2013-05-30 06:32:00,
2013-05-30 01:37:00,75.4,70.2,29.91,SW,227,0.0,12.0,84,0.00,,,0.00,Wunderground v.1.13,2013-05-30 06:37:00,
2013-05-30 01:43:00,75.4,70.6,29.91,SSW,209,0.0,12.0,85,0.00,,,0.00,Wunderground v.1.13,2013-05-30 06:43:00,
2013-05-30 01:48:00,75.4,70.6,29.91,SSW,209,0.0,12.0,85,0.00,,,0.00,Wunderground v.1.13,2013-05-30 06:48:00,
2013-05-30 01:53:00,75.4,70.6,29.91,SSW,209,0.0,12.0,85,0.00,,,0.00,Wunderground v.1.13,2013-05-30 06:53:00,
2013-05-30 01:59:00,75.6,70.8,29.91,East,89,0.0,12.0,85,0.00,,,0.00,Wunderground v.1.13,2013-05-30 06:59:00,
2013-05-30 02:04:00,75.6,70.8,29.91,East,89,0.0,12.0,85,0.00,,,0.00,Wunderground v.1.13,2013-05-30 07:04:00,
2013-05-30 02:09:00,75.6,70.8,29.91,East,89,0.0,12.0,85,0.00,,,0.00,Wunderground v.1.13,2013-05-30 07:09:00,
2013-05-30 02:15:00,75.8,71.0,29.91,ESE,112,0.0,12.0,85,0.00,,,0.00,Wunderground v.1.13,2013-05-30 07:15:00,
2013-05-30 02:20:00,75.8,71.0,29.91,East,96,0.0,12.0,85,0.00,,,0.00,Wunderground v.1.13,2013-05-30 07:20:00,
2013-05-30 02:25:00,75.8,71.0,29.90,East,96,0.0,12.0,85,0.00,,,0.00,Wunderground v.1.13,2013-05-30 07:25:00,
2013-05-30 02:31:00,75.8,71.0,29.90,East,89,0.0,12.0,85,0.00,,,0.00,Wunderground v.1.13,2013-05-30 07:31:00,
2013-05-30 02:36:00,75.8,71.0,29.90,ENE,58,0.0,12.0,85,0.00,,,0.00,Wunderground v.1.13,2013-05-30 07:36:00,
2013-05-30 02:41:00,75.8,71.0,29.90,ENE,62,0.0,12.0,85,0.00,,,0.00,Wunderground v.1.13,2013-05-30 07:41:00,
2013-05-30 02:47:00,75.8,71.0,29.90,East,99,0.0,12.0,85,0.00,,,0.00,Wunderground v.1.13,2013-05-30 07:47:00,
2013-05-30 02:52:00,75.8,71.0,29.90,East,95,0.0,12.0,85,0.00,,,0.00,Wunderground v.1.13,2013-05-30 07:52:00,
2013-05-30 02:57:00,75.8,71.0,29.90,SE,131,0.0,12.0,85,0.00,,,0.00,Wunderground v.1.13,2013-05-30 07:57:00,
2013-05-30 03:02:00,75.8,71.0,29.90,SE,131,0.0,12.0,85,0.00,,,0.00,Wunderground v.1.13,2013-05-30 08:02:00,
2013-05-30 03:08:00,75.8,71.0,29.90,SE,131,0.0,12.0,85,0.00,,,0.00,Wunderground v.1.13,2013-05-30 08:08:00,
2013-05-30 03:13:00,75.8,71.0,29.90,SE,131,0.0,12.0,85,0.00,,,0.00,Wunderground v.1.13,2013-05-30 08:13:00,
2013-05-30 03:18:00,75.8,71.0,29.90,SE,131,0.0,12.0,85,0.00,,,0.00,Wunderground v.1.13,2013-05-30 08:18:00,
2013-05-30 03:24:00,75.8,71.0,29.90,SE,131,0.0,12.0,85,0.00,,,0.00,Wunderground v.1.13,2013-05-30 08:24:00,
2013-05-30 03:29:00,75.8,71.0,29.90,NE,56,0.0,12.0,85,0.00,,,0.00,Wunderground v.1.13,2013-05-30 08:29:00,
2013-05-30 03:34:00,75.8,71.0,29.90,ENE,62,0.0,12.0,85,0.00,,,0.00,Wunderground v.1.13,2013-05-30 08:34:00,
2013-05-30 03:39:00,75.8,71.0,29.90,West,280,0.0,12.0,85,0.00,,,0.00,Wunderground v.1.13,2013-05-30 08:39:00,
2013-05-30 03:45:00,75.6,70.8,29.90,SSE,147,0.0,12.0,85,0.00,,,0.00,Wunderground v.1.13,2013-05-30 08:45:00,
2013-05-30 03:50:00,75.6,70.8,29.90,West,271,0.0,12.0,85,0.00,,,0.00,Wunderground v.1.13,2013-05-30 08:50:00,
2013-05-30 03:55:00,75.8,71.0,29.90,ENE,76,0.0,12.0,85,0.00,,,0.00,Wunderground v.1.13,2013-05-30 08:55:00,
2013-05-30 04:00:00,75.8,71.0,29.90,NNE,32,0.0,12.0,85,0.00,,,0.00,Wunderground v.1.13,2013-05-30 09:00:00,
2013-05-30 04:06:00,75.8,71.0,29.90,SSE,157,0.0,12.0,85,0.00,,,0.00,Wunderground v.1.13,2013-05-30 09:06:00,
2013-05-30 04:11:00,75.8,71.0,29.90,SSE,150,0.0,12.0,85,0.00,,,0.00,Wunderground v.1.13,2013-05-30 09:11:00,
2013-05-30 04:16:00,76.0,71.2,29.90,SSE,150,0.0,12.0,85,0.00,,,0.00,Wunderground v.1.13,2013-05-30 09:16:00,
2013-05-30 04:22:00,76.0,71.2,29.90,SSE,150,0.0,12.0,85,0.00,,,0.00,Wunderground v.1.13,2013-05-30 09:22:00,
2013-05-30 04:27:00,76.0,71.2,29.90,SSE,150,0.0,12.0,85,0.00,,,0.00,Wunderground v.1.13,2013-05-30 09:27:00,
2013-05-30 04:32:00,76.1,71.3,29.90,SSE,150,0.0,12.0,85,0.00,,,0.00,Wunderground v.1.13,2013-05-30 09:32:00,
2013-05-30 04:38:00,76.1,71.3,29.90,ESE,112,0.0,12.0,85,0.00,,,0.00,Wunderground v.1.13,2013-05-30 09:38:00,
2013-05-30 04:43:00,76.1,71.3,29.90,ESE,112,0.0,12.0,85,0.00,,,0.00,Wunderground v.1.13,2013-05-30 09:43:00,
2013-05-30 04:48:00,76.3,71.5,29.90,ESE,112,0.0,12.0,85,0.00,,,0.00,Wunderground v.1.13,2013-05-30 09:48:00,
2013-05-30 04:53:00,76.3,71.5,29.91,SE,134,0.0,12.0,85,0.00,,,0.00,Wunderground v.1.13,2013-05-30 09:53:00,
2013-05-30 04:59:00,76.3,71.5,29.91,SSW,192,0.0,12.0,85,0.00,,,0.00,Wunderground v.1.13,2013-05-30 09:59:00,
2013-05-30 05:04:00,76.3,71.5,29.91,SSE,168,0.0,12.0,85,0.00,,,0.00,Wunderground v.1.13,2013-05-30 10:04:00,
2013-05-30 05:09:00,76.3,71.5,29.91,SSE,168,0.0,12.0,85,0.00,,,0.00,Wunderground v.1.13,2013-05-30 10:09:00,
2013-05-30 05:15:00,76.3,71.5,29.91,SE,133,0.0,12.0,85,0.00,,,0.00,Wunderground v.1.13,2013-05-30 10:15:00,
2013-05-30 05:21:00,76.3,71.5,29.91,SW,232,0.0,12.0,85,0.00,,,0.00,Wunderground v.1.13,2013-05-30 10:21:00,
2013-05-30 05:26:00,76.3,71.5,29.91,SW,232,0.0,12.0,85,0.00,,,0.00,Wunderground v.1.13,2013-05-30 10:26:00,
2013-05-30 05:31:00,76.1,71.3,29.91,South,191,0.0,12.0,85,0.00,,,0.00,Wunderground v.1.13,2013-05-30 10:31:00,
2013-05-30 05:37:00,76.1,71.3,29.92,South,191,0.0,12.0,85,0.00,,,0.00,Wunderground v.1.13,2013-05-30 10:37:00,
2013-05-30 05:42:00,76.1,71.3,29.92,South,191,0.0,12.0,85,0.00,,,0.00,Wunderground v.1.13,2013-05-30 10:42:00,
2013-05-30 05:47:00,76.1,71.3,29.92,South,191,0.0,12.0,85,0.00,,,0.00,Wunderground v.1.13,2013-05-30 10:47:00,
2013-05-30 05:53:00,76.1,71.3,29.92,South,191,0.0,12.0,85,0.00,,,0.00,Wunderground v.1.13,2013-05-30 10:53:00,
2013-05-30 05:58:00,76.1,71.3,29.92,South,191,0.0,12.0,85,0.00,,,0.00,Wunderground v.1.13,2013-05-30 10:58:00,
2013-05-30 06:03:00,76.1,71.3,29.92,East,95,0.0,12.0,85,0.00,,,0.00,Wunderground v.1.13,2013-05-30 11:03:00,
2013-05-30 06:08:00,76.1,71.3,29.93,SSW,192,0.0,12.0,85,0.00,,,0.00,Wunderground v.1.13,2013-05-30 11:08:00,
2013-05-30 06:14:00,76.1,71.3,29.93,ENE,58,0.0,12.0,85,0.00,,,0.00,Wunderground v.1.13,2013-05-30 11:14:00,
2013-05-30 06:19:00,76.1,71.3,29.93,ENE,68,0.0,12.0,85,0.00,,,0.00,Wunderground v.1.13,2013-05-30 11:19:00,
2013-05-30 06:24:00,76.3,71.5,29.93,ENE,68,0.0,12.0,85,0.00,,,0.00,Wunderground v.1.13,2013-05-30 11:24:00,
2013-05-30 06:30:00,76.3,71.5,29.93,ENE,68,0.0,12.0,85,0.00,,,0.00,Wunderground v.1.13,2013-05-30 11:30:00,
2013-05-30 06:35:00,76.5,71.7,29.93,ENE,68,0.0,12.0,85,0.00,,,0.00,Wunderground v.1.13,2013-05-30 11:35:00,
2013-05-30 06:40:00,76.5,71.7,29.93,ESE,110,0.0,12.0,85,0.00,,,0.00,Wunderground v.1.13,2013-05-30 11:40:00,
2013-05-30 06:45:00,76.7,71.8,29.93,SE,134,0.0,12.0,85,0.00,,,0.00,Wunderground v.1.13,2013-05-30 11:45:00,
2013-05-30 06:50:00,76.7,71.8,29.93,South,171,0.0,12.0,85,0.00,,,0.00,Wunderground v.1.13,2013-05-30 11:50:00,
2013-05-30 06:56:00,76.7,71.8,29.94,West,280,0.0,12.0,85,0.00,,,0.00,Wunderground v.1.13,2013-05-30 11:56:00,
2013-05-30 07:01:00,76.8,71.9,29.94,West,280,0.0,12.0,85,0.00,,,0.00,Wunderground v.1.13,2013-05-30 12:01:00,
2013-05-30 07:06:00,76.8,71.9,29.94,SW,223,0.0,12.0,85,0.00,,,0.00,Wunderground v.1.13,2013-05-30 12:06:00,
2013-05-30 07:11:00,76.8,71.9,29.94,SW,223,0.0,12.0,85,0.00,,,0.00,Wunderground v.1.13,2013-05-30 12:11:00,
2013-05-30 07:16:00,76.8,71.9,29.94,SSW,205,0.0,12.0,85,0.00,,,0.00,Wunderground v.1.13,2013-05-30 12:16:00,
2013-05-30 07:22:00,77.0,72.1,29.95,ESE,109,0.0,12.0,85,0.00,,,0.00,Wunderground v.1.13,2013-05-30 12:22:00,
2013-05-30 07:27:00,77.0,72.1,29.95,ESE,109,0.0,12.0,85,0.00,,,0.00,Wunderground v.1.13,2013-05-30 12:27:00,
2013-05-30 07:32:00,77.2,72.3,29.95,SW,217,0.0,12.0,85,0.00,,,0.00,Wunderground v.1.13,2013-05-30 12:32:00,
2013-05-30 07:37:00,77.2,72.3,29.95,SE,140,0.0,12.0,85,0.00,,,0.00,Wunderground v.1.13,2013-05-30 12:37:00,
2013-05-30 07:42:00,77.4,72.5,29.95,East,85,0.0,12.0,85,0.00,,,0.00,Wunderground v.1.13,2013-05-30 12:42:00,
2013-05-30 07:48:00,77.4,72.9,29.95,East,85,0.0,12.0,86,0.00,,,0.00,Wunderground v.1.13,2013-05-30 12:48:00,
2013-05-30 07:53:00,77.4,72.5,29.95,SSW,208,0.0,12.0,85,0.00,,,0.00,Wunderground v.1.13,2013-05-30 12:53:00,
2013-05-30 07:58:00,77.4,72.5,29.95,NNW,343,0.0,12.0,85,0.00,,,0.00,Wunderground v.1.13,2013-05-30 12:58:00,
2013-05-30 08:03:00,77.4,72.5,29.95,NNW,343,0.0,12.0,85,0.00,,,0.00,Wunderground v.1.13,2013-05-30 13:03:00,
2013-05-30 08:08:00,77.4,72.5,29.95,NNW,343,0.0,12.0,85,0.00,,,0.00,Wunderground v.1.13,2013-05-30 13:08:00,
2013-05-30 08:14:00,77.4,72.9,29.95,NNW,333,0.0,12.0,86,0.00,,,0.00,Wunderground v.1.13,2013-05-30 13:14:00,
2013-05-30 08:19:00,77.4,72.5,29.95,South,188,0.0,12.0,85,0.00,,,0.00,Wunderground v.1.13,2013-05-30 13:19:00,
2013-05-30 08:24:00,77.4,72.2,29.95,ENE,69,0.0,12.0,84,0.00,,,0.00,Wunderground v.1.13,2013-05-30 13:24:00,
2013-05-30 08:29:00,77.6,72.4,29.95,WSW,257,0.0,12.0,84,0.00,,,0.00,Wunderground v.1.13,2013-05-30 13:29:00,
2013-05-30 08:34:00,77.7,72.5,29.95,SSE,155,0.0,12.0,84,0.00,,,0.00,Wunderground v.1.13,2013-05-30 13:34:00,
2013-05-30 08:40:00,77.9,72.7,29.96,SW,224,0.0,12.0,84,0.00,,,0.00,Wunderground v.1.13,2013-05-30 13:40:00,
2013-05-30 08:45:00,78.3,72.7,29.96,ENE,75,1.0,1.0,83,0.00,,,0.00,Wunderground v.1.13,2013-05-30 13:45:00,
2013-05-30 08:50:00,78.5,72.9,29.96,ESE,112,1.0,1.0,83,0.00,,,0.00,Wunderground v.1.13,2013-05-30 13:50:00,
2013-05-30 08:56:00,78.8,73.2,29.96,North,357,0.0,12.0,83,0.00,,,0.00,Wunderground v.1.13,2013-05-30 13:56:00,
2013-05-30 09:01:00,79.2,73.2,29.96,SW,232,1.0,12.0,82,0.00,,,0.00,Wunderground v.1.13,2013-05-30 14:01:00,
2013-05-30 09:06:00,79.2,73.2,29.96,East,100,1.0,12.0,82,0.00,,,0.00,Wunderground v.1.13,2013-05-30 14:06:00,
2013-05-30 09:11:00,79.4,73.1,29.96,SSE,161,0.0,12.0,81,0.00,,,0.00,Wunderground v.1.13,2013-05-30 14:11:00,
2013-05-30 09:17:00,79.4,73.1,29.96,WSW,257,1.0,12.0,81,0.00,,,0.00,Wunderground v.1.13,2013-05-30 14:17:00,
2013-05-30 09:22:00,79.6,73.3,29.96,ESE,106,1.0,12.0,81,0.00,,,0.00,Wunderground v.1.13,2013-05-30 14:22:00,
2013-05-30 09:27:00,79.8,73.4,29.96,NW,308,1.0,12.0,81,0.00,,,0.00,Wunderground v.1.13,2013-05-30 14:27:00,
2013-05-30 09:33:00,79.8,72.7,29.96,SSW,205,1.0,12.0,79,0.00,,,0.00,Wunderground v.1.13,2013-05-30 14:33:00,
2013-05-30 09:38:00,79.8,72.7,29.96,East,82,1.0,12.0,79,0.00,,,0.00,Wunderground v.1.13,2013-05-30 14:38:00,
2013-05-30 09:43:00,79.8,72.7,29.96,East,80,0.0,12.0,79,0.00,,,0.00,Wunderground v.1.13,2013-05-30 14:43:00,
2013-05-30 09:48:00,79.9,72.8,29.96,South,191,0.0,12.0,79,0.00,,,0.00,Wunderground v.1.13,2013-05-30 14:48:00,
2013-05-30 09:53:00,80.1,73.0,29.95,SE,137,0.0,12.0,79,0.00,,,0.00,Wunderground v.1.13,2013-05-30 14:53:00,
2013-05-30 09:59:00,80.3,72.8,29.95,ENE,73,1.0,12.0,78,0.00,,,0.00,Wunderground v.1.13,2013-05-30 14:59:00,
2013-05-30 10:04:00,80.5,73.0,29.95,SE,124,1.0,12.0,78,0.00,,,0.00,Wunderground v.1.13,2013-05-30 15:04:00,
2013-05-30 10:09:00,80.7,73.2,29.96,SW,215,1.0,12.0,78,0.00,,,0.00,Wunderground v.1.13,2013-05-30 15:09:00,
2013-05-30 10:14:00,80.9,73.4,29.96,West,263,1.0,12.0,78,0.00,,,0.00,Wunderground v.1.13,2013-05-30 15:14:00,
2013-05-30 10:19:00,81.1,73.2,29.96,NW,308,1.0,12.0,77,0.00,,,0.00,Wunderground v.1.13,2013-05-30 15:19:00,
2013-05-30 10:25:00,81.1,73.6,29.96,ENE,76,1.0,1.0,78,0.00,,,0.00,Wunderground v.1.13,2013-05-30 15:25:00,
2013-05-30 10:30:00,81.2,73.3,29.96,NE,47,1.0,12.0,77,0.00,,,0.00,Wunderground v.1.13,2013-05-30 15:30:00,
2013-05-30 10:35:00,81.2,73.3,29.96,SSE,152,1.0,1.0,77,0.00,,,0.00,Wunderground v.1.13,2013-05-30 15:35:00,
2013-05-30 10:40:00,81.1,73.6,29.96,SE,143,1.0,1.0,78,0.00,,,0.01,Wunderground v.1.13,2013-05-30 15:40:00,
2013-05-30 10:45:00,80.9,73.4,29.96,SE,133,0.0,12.0,78,0.00,,,0.01,Wunderground v.1.13,2013-05-30 15:45:00,
2013-05-30 10:51:00,80.7,73.6,29.96,SSW,193,0.0,12.0,79,0.00,,,0.01,Wunderground v.1.13,2013-05-30 15:51:00,
2013-05-30 10:56:00,80.7,73.6,29.97,SSW,199,1.0,12.0,79,0.00,,,0.01,Wunderground v.1.13,2013-05-30 15:56:00,
2013-05-30 11:01:00,80.5,73.4,29.97,West,277,0.0,12.0,79,0.00,,,0.01,Wunderground v.1.13,2013-05-30 16:01:00,
2013-05-30 11:06:00,80.1,72.6,29.97,SSE,167,0.0,12.0,78,0.00,,,0.01,Wunderground v.1.13,2013-05-30 16:06:00,
2013-05-30 11:11:00,80.1,73.0,29.97,West,263,0.0,12.0,79,0.00,,,0.01,Wunderground v.1.13,2013-05-30 16:11:00,
2013-05-30 11:17:00,80.3,73.2,29.97,SSW,212,0.0,12.0,79,0.00,,,0.01,Wunderground v.1.13,2013-05-30 16:17:00,
2013-05-30 11:22:00,80.5,73.0,29.97,NE,54,1.0,12.0,78,0.00,,,0.01,Wunderground v.1.13,2013-05-30 16:22:00,
2013-05-30 11:27:00,80.7,73.2,29.97,East,88,1.0,12.0,78,0.00,,,0.01,Wunderground v.1.13,2013-05-30 16:27:00,
2013-05-30 11:32:00,81.1,73.6,29.97,ENE,58,0.0,12.0,78,0.00,,,0.01,Wunderground v.1.13,2013-05-30 16:32:00,
2013-05-30 11:37:00,81.4,73.5,29.96,East,96,1.0,12.0,77,0.00,,,0.01,Wunderground v.1.13,2013-05-30 16:37:00,
2013-05-30 11:42:00,81.8,73.5,29.96,WNW,299,1.0,12.0,76,0.00,,,0.01,Wunderground v.1.13,2013-05-30 16:42:00,
2013-05-30 11:47:00,82.0,73.3,29.96,ESE,103,2.0,12.0,75,0.00,,,0.01,Wunderground v.1.13,2013-05-30 16:47:00,
2013-05-30 11:53:00,82.2,73.5,29.95,NW,320,2.0,12.0,75,0.00,,,0.01,Wunderground v.1.13,2013-05-30 16:53:00,
2013-05-30 11:58:00,82.4,73.7,29.95,NW,313,1.0,12.0,75,0.00,,,0.01,Wunderground v.1.13,2013-05-30 16:58:00,
2013-05-30 12:03:00,82.6,73.5,29.95,NE,56,1.0,12.0,74,0.00,,,0.01,Wunderground v.1.13,2013-05-30 17:03:00,
2013-05-30 12:09:00,82.6,73.5,29.95,ENE,59,2.0,12.0,74,0.00,,,0.01,Wunderground v.1.13,2013-05-30 17:09:00,
2013-05-30 12:14:00,82.8,73.7,29.95,NE,44,1.0,12.0,74,0.00,,,0.01,Wunderground v.1.13,2013-05-30 17:14:00,
2013-05-30 12:19:00,83.0,73.9,29.95,East,89,1.0,12.0,74,0.00,,,0.01,Wunderground v.1.13,2013-05-30 17:19:00,
2013-05-30 12:25:00,83.0,73.9,29.94,NE,34,2.0,2.0,74,0.00,,,0.01,Wunderground v.1.13,2013-05-30 17:25:00,
2013-05-30 12:30:00,83.2,73.6,29.94,ENE,72,2.0,12.0,73,0.00,,,0.01,Wunderground v.1.13,2013-05-30 17:30:00,
2013-05-30 12:35:00,83.2,73.6,29.94,SSW,213,2.0,2.0,73,0.00,,,0.01,Wunderground v.1.13,2013-05-30 17:35:00,
2013-05-30 12:40:00,83.2,73.6,29.95,North,10,2.0,2.0,73,0.00,,,0.01,Wunderground v.1.13,2013-05-30 17:40:00,
2013-05-30 12:46:00,83.4,73.4,29.95,NE,47,1.0,3.0,72,0.00,,,0.01,Wunderground v.1.13,2013-05-30 17:46:00,
2013-05-30 12:51:00,83.4,73.4,29.95,NE,47,1.0,12.0,72,0.00,,,0.01,Wunderground v.1.13,2013-05-30 17:51:00,
2013-05-30 12:56:00,83.6,73.2,29.95,SSE,164,1.0,12.0,71,0.00,,,0.01,Wunderground v.1.13,2013-05-30 17:56:00,
2013-05-30 13:02:00,83.6,73.6,29.95,East,82,0.0,12.0,72,0.00,,,0.01,Wunderground v.1.13,2013-05-30 18:02:00,
2013-05-30 13:08:00,83.4,73.0,29.96,NNE,20,1.0,12.0,71,0.00,,,0.01,Wunderground v.1.13,2013-05-30 18:08:00,
2013-05-30 13:13:00,83.4,73.0,29.96,NE,54,1.0,12.0,71,0.00,,,0.01,Wunderground v.1.13,2013-05-30 18:13:00,
2013-05-30 13:19:00,83.4,73.0,29.96,ESE,109,0.0,12.0,71,0.00,,,0.01,Wunderground v.1.13,2013-05-30 18:19:00,
2013-05-30 13:24:00,83.4,73.0,29.95,SSW,200,0.0,12.0,71,0.00,,,0.01,Wunderground v.1.13,2013-05-30 18:24:00,
2013-05-30 13:30:00,83.4,73.4,29.95,South,172,1.0,12.0,72,0.00,,,0.01,Wunderground v.1.13,2013-05-30 18:30:00,
2013-05-30 13:35:00,83.4,73.0,29.95,NE,45,1.0,12.0,71,0.00,,,0.01,Wunderground v.1.13,2013-05-30 18:35:00,
2013-05-30 13:40:00,83.6,73.2,29.94,East,93,1.0,1.0,71,0.00,,,0.01,Wunderground v.1.13,2013-05-30 18:40:00,
2013-05-30 13:46:00,83.6,72.8,29.94,ESE,106,1.0,12.0,70,0.00,,,0.01,Wunderground v.1.13,2013-05-30 18:46:00,
2013-05-30 13:52:00,83.8,73.0,29.94,SSE,160,1.0,12.0,70,0.00,,,0.01,Wunderground v.1.13,2013-05-30 18:52:00,
2013-05-30 13:57:00,83.8,73.0,29.94,ENE,66,1.0,12.0,70,0.00,,,0.01,Wunderground v.1.13,2013-05-30 18:57:00,
2013-05-30 14:02:00,84.1,72.8,29.94,ENE,65,1.0,12.0,69,0.00,,,0.01,Wunderground v.1.13,2013-05-30 19:02:00,
2013-05-30 14:08:00,84.3,73.0,29.94,ENE,64,1.0,12.0,69,0.00,,,0.01,Wunderground v.1.13,2013-05-30 19:08:00,
2013-05-30 14:13:00,84.3,73.0,29.94,West,270,2.0,12.0,69,0.00,,,0.01,Wunderground v.1.13,2013-05-30 19:13:00,
2013-05-30 14:18:00,84.3,72.1,29.94,NE,42,2.0,12.0,67,0.00,,,0.01,Wunderground v.1.13,2013-05-30 19:18:00,
2013-05-30 14:24:00,84.3,72.6,29.93,SE,141,2.0,12.0,68,0.00,,,0.01,Wunderground v.1.13,2013-05-30 19:24:00,
2013-05-30 14:29:00,84.5,72.8,29.93,WSW,244,1.0,12.0,68,0.00,,,0.01,Wunderground v.1.13,2013-05-30 19:29:00,
2013-05-30 14:34:00,84.7,72.5,29.93,NE,52,0.0,12.0,67,0.00,,,0.01,Wunderground v.1.13,2013-05-30 19:34:00,
2013-05-30 14:40:00,84.9,72.7,29.92,WSW,246,1.0,12.0,67,0.00,,,0.01,Wunderground v.1.13,2013-05-30 19:40:00,
2013-05-30 14:45:00,84.9,72.7,29.92,NE,52,1.0,12.0,67,0.00,,,0.01,Wunderground v.1.13,2013-05-30 19:45:00,
2013-05-30 14:50:00,84.7,72.5,29.92,ENE,76,1.0,12.0,67,0.00,,,0.01,Wunderground v.1.13,2013-05-30 19:50:00,
2013-05-30 14:56:00,84.7,72.5,29.92,East,80,2.0,12.0,67,0.00,,,0.01,Wunderground v.1.13,2013-05-30 19:56:00,
2013-05-30 15:01:00,84.7,72.5,29.92,SW,219,2.0,3.0,67,0.00,,,0.01,Wunderground v.1.13,2013-05-30 20:01:00,
2013-05-30 15:06:00,84.7,72.1,29.92,NNE,32,2.0,12.0,66,0.00,,,0.01,Wunderground v.1.13,2013-05-30 20:06:00,
2013-05-30 15:11:00,84.9,72.3,29.92,NE,56,2.0,12.0,66,0.00,,,0.01,Wunderground v.1.13,2013-05-30 20:11:00,
2013-05-30 15:17:00,84.9,72.3,29.92,ESE,109,1.0,12.0,66,0.00,,,0.01,Wunderground v.1.13,2013-05-30 20:17:00,
2013-05-30 15:22:00,85.1,72.9,29.92,NE,34,1.0,12.0,67,0.00,,,0.01,Wunderground v.1.13,2013-05-30 20:22:00,
2013-05-30 15:27:00,84.9,72.3,29.92,ESE,107,1.0,12.0,66,0.00,,,0.01,Wunderground v.1.13,2013-05-30 20:27:00,
2013-05-30 15:32:00,84.9,72.3,29.92,North,11,2.0,12.0,66,0.00,,,0.01,Wunderground v.1.13,2013-05-30 20:32:00,
2013-05-30 15:38:00,84.9,72.7,29.91,NE,40,2.0,12.0,67,0.00,,,0.01,Wunderground v.1.13,2013-05-30 20:38:00,
2013-05-30 15:43:00,84.9,72.7,29.91,SSW,210,1.0,12.0,67,0.00,,,0.01,Wunderground v.1.13,2013-05-30 20:43:00,
2013-05-30 15:48:00,85.1,73.3,29.91,North,8,1.0,12.0,68,0.00,,,0.01,Wunderground v.1.13,2013-05-30 20:48:00,
2013-05-30 15:54:00,84.9,72.7,29.91,NNW,337,1.0,12.0,67,0.00,,,0.01,Wunderground v.1.13,2013-05-30 20:54:00,
2013-05-30 15:59:00,84.9,72.7,29.91,East,89,1.0,12.0,67,0.00,,,0.01,Wunderground v.1.13,2013-05-30 20:59:00,
2013-05-30 16:04:00,84.9,72.7,29.91,NW,323,1.0,12.0,67,0.00,,,0.01,Wunderground v.1.13,2013-05-30 21:04:00,
2013-05-30 16:10:00,85.1,72.9,29.91,WSW,258,1.0,1.0,67,0.00,,,0.01,Wunderground v.1.13,2013-05-30 21:10:00,
2013-05-30 16:15:00,85.1,72.9,29.91,East,92,1.0,1.0,67,0.00,,,0.01,Wunderground v.1.13,2013-05-30 21:15:00,
2013-05-30 16:20:00,84.9,72.3,29.91,West,278,1.0,1.0,66,0.00,,,0.01,Wunderground v.1.13,2013-05-30 21:20:00,
2013-05-30 16:25:00,84.7,71.6,29.92,WNW,287,1.0,1.0,65,0.00,,,0.01,Wunderground v.1.13,2013-05-30 21:25:00,
2013-05-30 16:30:00,84.3,71.2,29.92,WNW,289,1.0,1.0,65,0.00,,,0.01,Wunderground v.1.13,2013-05-30 21:30:00,
2013-05-30 16:36:00,84.1,72.0,29.92,North,0,1.0,2.0,67,0.00,,,0.01,Wunderground v.1.13,2013-05-30 21:36:00,
2013-05-30 16:41:00,84.0,71.9,29.91,SE,133,1.0,12.0,67,0.00,,,0.01,Wunderground v.1.13,2013-05-30 21:41:00,
2013-05-30 16:46:00,84.1,72.0,29.91,ENE,78,1.0,12.0,67,0.00,,,0.01,Wunderground v.1.13,2013-05-30 21:46:00,
2013-05-30 16:52:00,84.3,72.1,29.91,NE,42,1.0,12.0,67,0.00,,,0.01,Wunderground v.1.13,2013-05-30 21:52:00,
2013-05-30 16:57:00,84.5,72.8,29.91,SW,222,0.0,12.0,68,0.00,,,0.01,Wunderground v.1.13,2013-05-30 21:57:00,
2013-05-30 17:02:00,84.5,72.3,29.91,ESE,120,1.0,12.0,67,0.00,,,0.01,Wunderground v.1.13,2013-05-30 22:02:00,
2013-05-30 17:08:00,84.3,72.1,29.91,SE,133,1.0,12.0,67,0.00,,,0.01,Wunderground v.1.13,2013-05-30 22:08:00,
2013-05-30 17:13:00,84.3,72.1,29.91,WNW,288,0.0,12.0,67,0.00,,,0.01,Wunderground v.1.13,2013-05-30 22:13:00,
2013-05-30 17:18:00,84.1,71.5,29.91,NE,37,0.0,12.0,66,0.00,,,0.01,Wunderground v.1.13,2013-05-30 22:18:00,
2013-05-30 17:24:00,84.0,71.4,29.91,North,6,1.0,12.0,66,0.00,,,0.01,Wunderground v.1.13,2013-05-30 22:24:00,
2013-05-30 17:29:00,83.8,71.7,29.91,North,11,1.0,12.0,67,0.00,,,0.01,Wunderground v.1.13,2013-05-30 22:29:00,
2013-05-30 17:34:00,83.6,71.5,29.91,SSE,168,1.0,12.0,67,0.00,,,0.01,Wunderground v.1.13,2013-05-30 22:34:00,
2013-05-30 17:40:00,83.2,71.5,29.91,NE,34,1.0,1.0,68,0.00,,,0.01,Wunderground v.1.13,2013-05-30 22:40:00,
2013-05-30 17:46:00,82.8,70.7,29.91,ESE,112,1.0,12.0,67,0.00,,,0.01,Wunderground v.1.13,2013-05-30 22:46:00,
2013-05-30 17:51:00,82.8,71.6,29.91,South,185,1.0,12.0,69,0.00,,,0.01,Wunderground v.1.13,2013-05-30 22:51:00,
2013-05-30 17:56:00,82.6,71.4,29.90,SE,128,1.0,12.0,69,0.00,,,0.01,Wunderground v.1.13,2013-05-30 22:56:00,
2013-05-30 18:02:00,82.6,71.8,29.90,East,82,1.0,12.0,70,0.00,,,0.01,Wunderground v.1.13,2013-05-30 23:02:00,
2013-05-30 18:07:00,82.8,72.0,29.90,SE,137,1.0,12.0,70,0.00,,,0.01,Wunderground v.1.13,2013-05-30 23:07:00,
2013-05-30 18:13:00,82.8,72.0,29.90,ENE,73,1.0,12.0,70,0.00,,,0.01,Wunderground v.1.13,2013-05-30 23:13:00,
2013-05-30 18:18:00,83.0,71.8,29.90,NE,56,1.0,12.0,69,0.00,,,0.01,Wunderground v.1.13,2013-05-30 23:18:00,
2013-05-30 18:23:00,83.0,71.3,29.90,SSW,213,1.0,12.0,68,0.00,,,0.01,Wunderground v.1.13,2013-05-30 23:23:00,
2013-05-30 18:29:00,83.2,71.5,29.90,North,1,0.0,12.0,68,0.00,,,0.01,Wunderground v.1.13,2013-05-30 23:29:00,
2013-05-30 18:35:00,82.8,71.2,29.90,ENE,69,0.0,12.0,68,0.00,,,0.01,Wunderground v.1.13,2013-05-30 23:35:00,
2013-05-30 18:40:00,82.6,71.0,29.90,NE,54,0.0,12.0,68,0.00,,,0.01,Wunderground v.1.13,2013-05-30 23:40:00,
2013-05-30 18:45:00,82.4,70.8,29.90,NW,320,1.0,12.0,68,0.00,,,0.01,Wunderground v.1.13,2013-05-30 23:45:00,
2013-05-30 18:51:00,82.2,70.6,29.90,ENE,75,1.0,12.0,68,0.00,,,0.01,Wunderground v.1.13,2013-05-30 23:51:00,
2013-05-30 18:56:00,82.2,70.6,29.90,SSE,151,1.0,12.0,68,0.00,,,0.01,Wunderground v.1.13,2013-05-30 23:56:00,
2013-05-30 19:01:00,81.8,70.6,29.90,East,96,0.0,12.0,69,0.00,,,0.01,Wunderground v.1.13,2013-05-31 00:01:00,
2013-05-30 19:07:00,81.6,70.4,29.90,SE,127,0.0,12.0,69,0.00,,,0.01,Wunderground v.1.13,2013-05-31 00:07:00,
2013-05-30 19:12:00,81.4,70.2,29.90,ENE,71,0.0,12.0,69,0.00,,,0.01,Wunderground v.1.13,2013-05-31 00:12:00,
2013-05-30 19:17:00,81.1,70.4,29.90,ESE,123,1.0,12.0,70,0.00,,,0.01,Wunderground v.1.13,2013-05-31 00:17:00,
2013-05-30 19:22:00,80.7,70.0,29.91,ENE,76,1.0,12.0,70,0.00,,,0.01,Wunderground v.1.13,2013-05-31 00:22:00,
2013-05-30 19:28:00,80.5,70.2,29.91,SE,145,0.0,12.0,71,0.00,,,0.01,Wunderground v.1.13,2013-05-31 00:28:00,
2013-05-30 19:33:00,80.3,70.0,29.91,SE,124,0.0,12.0,71,0.00,,,0.01,Wunderground v.1.13,2013-05-31 00:33:00,
2013-05-30 19:38:00,79.9,69.7,29.91,WSW,253,0.0,12.0,71,0.00,,,0.01,Wunderground v.1.13,2013-05-31 00:38:00,
2013-05-30 19:44:00,79.8,70.0,29.91,SSE,168,1.0,12.0,72,0.00,,,0.01,Wunderground v.1.13,2013-05-31 00:44:00,
2013-05-30 19:49:00,79.6,69.8,29.91,NW,306,0.0,12.0,72,0.00,,,0.01,Wunderground v.1.13,2013-05-31 00:49:00,
2013-05-30 19:55:00,79.4,70.0,29.91,ENE,78,0.0,12.0,73,0.00,,,0.01,Wunderground v.1.13,2013-05-31 00:55:00,
2013-05-30 20:00:00,79.2,69.8,29.91,SSE,165,0.0,12.0,73,0.00,,,0.01,Wunderground v.1.13,2013-05-31 01:00:00,
2013-05-30 20:05:00,79.0,69.6,29.91,SE,124,0.0,12.0,73,0.00,,,0.01,Wunderground v.1.13,2013-05-31 01:05:00,
2013-05-30 20:10:00,78.8,69.8,29.91,East,82,0.0,12.0,74,0.00,,,0.01,Wunderground v.1.13,2013-05-31 01:10:00,
2013-05-30 20:16:00,78.6,69.6,29.91,SSE,148,0.0,12.0,74,0.00,,,0.01,Wunderground v.1.13,2013-05-31 01:16:00,
2013-05-30 20:21:00,78.5,69.5,29.91,ENE,64,0.0,12.0,74,0.00,,,0.01,Wunderground v.1.13,2013-05-31 01:21:00,
2013-05-30 20:26:00,78.5,69.5,29.91,South,169,0.0,12.0,74,0.00,,,0.01,Wunderground v.1.13,2013-05-31 01:26:00,
2013-05-30 20:32:00,78.3,69.3,29.91,SE,134,0.0,12.0,74,0.00,,,0.01,Wunderground v.1.13,2013-05-31 01:32:00,
2013-05-30 20:37:00,78.3,69.7,29.91,West,268,0.0,12.0,75,0.00,,,0.01,Wunderground v.1.13,2013-05-31 01:37:00,
2013-05-30 20:42:00,78.1,69.5,29.91,West,268,0.0,12.0,75,0.00,,,0.01,Wunderground v.1.13,2013-05-31 01:42:00,
2013-05-30 20:47:00,78.1,69.5,29.91,East,90,0.0,12.0,75,0.00,,,0.01,Wunderground v.1.13,2013-05-31 01:47:00,
2013-05-30 20:53:00,78.1,69.5,29.91,East,90,0.0,12.0,75,0.00,,,0.01,Wunderground v.1.13,2013-05-31 01:53:00,
2013-05-30 20:58:00,77.9,69.7,29.91,SW,219,0.0,12.0,76,0.00,,,0.01,Wunderground v.1.13,2013-05-31 01:58:00,
2013-05-30 21:03:00,77.9,69.7,29.91,SW,220,0.0,12.0,76,0.00,,,0.01,Wunderground v.1.13,2013-05-31 02:03:00,
2013-05-30 21:08:00,77.7,69.5,29.91,WSW,240,0.0,12.0,76,0.00,,,0.01,Wunderground v.1.13,2013-05-31 02:08:00,
2013-05-30 21:14:00,77.7,69.5,29.91,North,0,0.0,12.0,76,0.00,,,0.01,Wunderground v.1.13,2013-05-31 02:14:00,
2013-05-30 21:19:00,77.7,69.9,29.91,SSW,212,0.0,12.0,77,0.00,,,0.01,Wunderground v.1.13,2013-05-31 02:19:00,
2013-05-30 21:24:00,77.7,69.9,29.92,SSE,152,0.0,12.0,77,0.00,,,0.01,Wunderground v.1.13,2013-05-31 02:24:00,
2013-05-30 21:30:00,77.6,69.8,29.92,SE,140,0.0,12.0,77,0.00,,,0.01,Wunderground v.1.13,2013-05-31 02:30:00,
2013-05-30 21:35:00,77.6,69.8,29.92,SE,131,0.0,12.0,77,0.00,,,0.01,Wunderground v.1.13,2013-05-31 02:35:00,
2013-05-30 21:40:00,77.6,69.8,29.92,SSE,155,0.0,12.0,77,0.00,,,0.01,Wunderground v.1.13,2013-05-31 02:40:00,
2013-05-30 21:45:00,77.6,69.8,29.92,ESE,103,0.0,12.0,77,0.00,,,0.01,Wunderground v.1.13,2013-05-31 02:45:00,
2013-05-30 21:51:00,77.4,69.6,29.92,ENE,69,0.0,12.0,77,0.00,,,0.01,Wunderground v.1.13,2013-05-31 02:51:00,
2013-05-30 21:56:00,77.4,69.6,29.93,SSW,195,0.0,12.0,77,0.00,,,0.01,Wunderground v.1.13,2013-05-31 02:56:00,
2013-05-30 22:01:00,77.4,70.0,29.93,South,174,0.0,12.0,78,0.00,,,0.01,Wunderground v.1.13,2013-05-31 03:01:00,
2013-05-30 22:07:00,77.4,70.0,29.93,SSE,148,0.0,12.0,78,0.00,,,0.01,Wunderground v.1.13,2013-05-31 03:07:00,
2013-05-30 22:12:00,77.4,70.0,29.93,WNW,296,0.0,12.0,78,0.00,,,0.01,Wunderground v.1.13,2013-05-31 03:12:00,
2013-05-30 22:17:00,77.2,69.8,29.93,WNW,296,0.0,12.0,78,0.00,,,0.01,Wunderground v.1.13,2013-05-31 03:17:00,
2013-05-30 22:23:00,77.2,69.8,29.93,WNW,298,0.0,12.0,78,0.00,,,0.01,Wunderground v.1.13,2013-05-31 03:23:00,
2013-05-30 22:29:00,77.2,69.8,29.93,West,271,0.0,12.0,78,0.00,,,0.01,Wunderground v.1.13,2013-05-31 03:29:00,
2013-05-30 22:34:00,77.2,69.8,29.93,SSE,168,0.0,12.0,78,0.00,,,0.01,Wunderground v.1.13,2013-05-31 03:34:00,
2013-05-30 22:39:00,77.2,70.2,29.93,ESE,116,0.0,12.0,79,0.00,,,0.01,Wunderground v.1.13,2013-05-31 03:39:00,
2013-05-30 22:45:00,77.2,70.2,29.93,ESE,116,0.0,12.0,79,0.00,,,0.01,Wunderground v.1.13,2013-05-31 03:45:00,
2013-05-30 22:50:00,77.2,70.2,29.93,NE,56,0.0,12.0,79,0.00,,,0.01,Wunderground v.1.13,2013-05-31 03:50:00,
2013-05-30 22:55:00,77.0,70.0,29.94,North,3,0.0,12.0,79,0.00,,,0.01,Wunderground v.1.13,2013-05-31 03:55:00,
2013-05-30 23:00:00,77.0,70.0,29.94,North,3,0.0,12.0,79,0.00,,,0.01,Wunderground v.1.13,2013-05-31 04:00:00,
2013-05-30 23:02:00,77.0,70.0,29.94,North,3,0.0,12.0,79,0.00,,,0.01,Wunderground v.1.13,2013-05-31 04:02:00,
2013-05-30 23:04:00,77.0,70.0,29.94,North,10,0.0,12.0,79,0.00,,,0.01,Wunderground v.1.13,2013-05-31 04:04:00,
2013-05-30 23:09:00,77.0,70.4,29.94,North,10,0.0,12.0,80,0.00,,,0.01,Wunderground v.1.13,2013-05-31 04:09:00,
2013-05-30 23:11:00,77.0,70.4,29.94,North,10,0.0,12.0,80,0.00,,,0.01,Wunderground v.1.13,2013-05-31 04:11:00,
2013-05-30 23:14:00,77.0,70.4,29.94,South,176,0.0,12.0,80,0.00,,,0.01,Wunderground v.1.13,2013-05-31 04:14:00,
2013-05-30 23:15:00,77.0,70.4,29.94,South,176,0.0,12.0,80,0.00,,,0.01,Wunderground v.1.13,2013-05-31 04:15:00,
2013-05-30 23:20:00,77.0,70.4,29.94,SW,217,0.0,12.0,80,0.00,,,0.01,Wunderground v.1.13,2013-05-31 04:20:00,
2013-05-30 23:26:00,77.0,70.4,29.94,SW,217,0.0,12.0,80,0.00,,,0.01,Wunderground v.1.13,2013-05-31 04:26:00,
2013-05-30 23:31:00,77.0,70.4,29.94,SW,217,0.0,12.0,80,0.00,,,0.01,Wunderground v.1.13,2013-05-31 04:31:00,
2013-05-30 23:36:00,77.0,70.4,29.94,SW,217,0.0,12.0,80,0.00,,,0.01,Wunderground v.1.13,2013-05-31 04:36:00,
2013-05-30 23:42:00,77.0,70.4,29.94,East,79,0.0,12.0,80,0.00,,,0.01,Wunderground v.1.13,2013-05-31 04:42:00,
2013-05-30 23:47:00,76.8,70.2,29.94,SE,127,0.0,12.0,80,0.00,,,0.01,Wunderground v.1.13,2013-05-31 04:47:00,
2013-05-30 23:52:00,76.8,70.2,29.94,SE,127,0.0,12.0,80,0.00,,,0.01,Wunderground v.1.13,2013-05-31 04:52:00,
2013-05-30 23:57:00,77.0,70.4,29.94,SSW,192,0.0,12.0,80,0.00,,,0.01,Wunderground v.1.13,2013-05-31 04:57:00,